COS - City Of Colorado Springs Muni

Pirep is a free, collaborative database of all public and private airports located within the United States. All pilots are welcome to contribute, edit, and improve any airport they have local knowledge about, no registration required.
Uploaded photos will be licensed under a CC BY-SA 4.0 license. Please only upload photos you have the rights to use.
Tags
Public
Food
Lodging
Car Rental
Museum
METAR / TAF
Flying Clubs
Webcam
Edit Tags
Camping
Bicycles
Swimming
Golfing
Fishing
Hot Springs
Airpark
Upcoming Events
No upcoming events. Is anything happening here soon?
*
*
*

Where exactly on/near the airport is this event taking place?

Is there a webpage with more information for this event?

Who should be contacted for more information?

What is this event all about?

Repeat every
Description
Last updated: 2023-05-29 15:08:43 MDT
Transient Parking
Fuel Location
Landing & Tie-down Fees
Crew Car Availability
Flying Clubs
Last updated: 2024-02-03 12:28:19 MST
WiFi Access
Airport Statistics
Location: Colorado Springs, CO
Elevation: 6,187ft
Sectional: Denver
Activation date: Apr 1940
Fuel: 100LL, A (prices)
Runway 17L/35R: 13,500ft
Runway 17R/35L: 11,022ft
Runway 13/31: 8,270ft
Access: Open to the public
Current Weather — VFR
  • Weather data is strictly informational and not for flight planning purposes.
  • METAR
    2024-04-24 09:54:00 MDT
    Ceiling Wind Temperature Dewpoint Weather Visbility
    Sky clear 120° @ 4kt 53°F 33°F N/A 10SM
    Raw: KCOS 241554Z 12004KT 10SM CLR 12/01 A3015 RMK AO2 SLP164 T01170006
  • TAF
    2024-04-24 06:00:00 MDT – 2024-04-24 09:00:00 MDT
    Ceiling Wind Weather Visbility
    Sky clear 100° @ 5kt N/A 6SM
    Clouds: @ ft
    Raw: KCOS 241120Z 2412/2512 10005KT P6SM SKC FM241500 15010KT P6SM FEW250 FM241800 17012G22KT P6SM SCT120 FM242100 16015G25KT P6SM SCT100 FM250300 15010KT P6SM BKN150 FM250600 10008KT P6SM FEW090
  • TAF
    2024-04-24 09:00:00 MDT – 2024-04-24 12:00:00 MDT
    Ceiling Wind Weather Visbility
    Sky clear 150° @ 10kt N/A 6SM
    Clouds: Few @ 25,000ft
    Raw: KCOS 241120Z 2412/2512 10005KT P6SM SKC FM241500 15010KT P6SM FEW250 FM241800 17012G22KT P6SM SCT120 FM242100 16015G25KT P6SM SCT100 FM250300 15010KT P6SM BKN150 FM250600 10008KT P6SM FEW090
  • TAF
    2024-04-24 12:00:00 MDT – 2024-04-24 15:00:00 MDT
    Ceiling Wind Weather Visbility
    Sky clear 170° @ 12kt, gusts 22kt N/A 6SM
    Clouds: Scattered @ 12,000ft
    Raw: KCOS 241120Z 2412/2512 10005KT P6SM SKC FM241500 15010KT P6SM FEW250 FM241800 17012G22KT P6SM SCT120 FM242100 16015G25KT P6SM SCT100 FM250300 15010KT P6SM BKN150 FM250600 10008KT P6SM FEW090
  • TAF
    2024-04-24 15:00:00 MDT – 2024-04-24 21:00:00 MDT
    Ceiling Wind Weather Visbility
    Sky clear 160° @ 15kt, gusts 25kt N/A 6SM
    Clouds: Scattered @ 10,000ft
    Raw: KCOS 241120Z 2412/2512 10005KT P6SM SKC FM241500 15010KT P6SM FEW250 FM241800 17012G22KT P6SM SCT120 FM242100 16015G25KT P6SM SCT100 FM250300 15010KT P6SM BKN150 FM250600 10008KT P6SM FEW090
  • TAF
    2024-04-24 21:00:00 MDT – 2024-04-25 00:00:00 MDT
    Ceiling Wind Weather Visbility
    15,000ft 150° @ 10kt N/A 6SM
    Clouds: Broken @ 15,000ft
    Raw: KCOS 241120Z 2412/2512 10005KT P6SM SKC FM241500 15010KT P6SM FEW250 FM241800 17012G22KT P6SM SCT120 FM242100 16015G25KT P6SM SCT100 FM250300 15010KT P6SM BKN150 FM250600 10008KT P6SM FEW090
  • TAF
    2024-04-25 00:00:00 MDT – 2024-04-25 06:00:00 MDT
    Ceiling Wind Weather Visbility
    Sky clear 100° @ 8kt N/A 6SM
    Clouds: Few @ 9,000ft
    Raw: KCOS 241120Z 2412/2512 10005KT P6SM SKC FM241500 15010KT P6SM FEW250 FM241800 17012G22KT P6SM SCT120 FM242100 16015G25KT P6SM SCT100 FM250300 15010KT P6SM BKN150 FM250600 10008KT P6SM FEW090
Click/tap to add an annotation marker to the map
Direct links to live image URLs will be displayed inline on this page. URLs to separate webpages will be linked to.
URL:
Direct links to live image URLs will be displayed inline on this page. URLs to separate webpages will be linked to.
URL:
Remarks
  • Includes commuters.
  • Customs avbl for all mil/civilian acft. contact us customs 719-574-6607.
  • Turbo jet trng flts prohibited 2300-0600.
  • B52 opns prohibited.
  • Lgtd wdi apch rwy 17l/35r, 17r/35l & 13/31.
Comments
Leave a comment What was your experience like at this airport?